Time;durP1;ratioP1;P1;durP2;ratioP2;P2;SDS_P1;SDS_P2;PMS_P1;PMS_P2;Temp;Humidity;BMP_temperature;BMP_pressure;BME280_temperature;BME280_humidity;BME280_pressure;Samples;Min_cycle;Max_cycle;Signal;HPM_P1;HPM_P2
2022/08/17 00:01:18;;;;;;;4.30;4.10;;;19.10;99.90;;;;;;5083465;28;20652;-81
2022/08/17 00:03:47;;;;;;;4.70;4.27;;;19.10;99.90;;;;;;5085379;28;20628;-80
2022/08/17 00:06:16;;;;;;;4.27;3.97;;;19.00;99.90;;;;;;5082218;28;20674;-82
2022/08/17 00:08:46;;;;;;;5.20;4.70;;;19.00;99.90;;;;;;5086756;28;20621;-80
2022/08/17 00:11:15;;;;;;;6.77;6.00;;;19.00;99.90;;;;;;5082282;28;20652;-80
2022/08/17 00:13:47;;;;;;;4.80;4.50;;;19.00;99.90;;;;;;5081182;28;20984;-80
2022/08/17 00:16:17;;;;;;;5.30;4.83;;;18.90;99.90;;;;;;5082058;28;21199;-80
2022/08/17 00:18:45;;;;;;;5.87;5.20;;;18.90;99.90;;;;;;5084208;28;20624;-80
2022/08/17 00:21:13;;;;;;;5.23;4.90;;;18.90;99.90;;;;;;5082547;28;20659;-81
2022/08/17 00:23:41;;;;;;;5.67;5.17;;;18.80;99.90;;;;;;5079479;28;20625;-81
2022/08/17 00:26:09;;;;;;;5.80;5.40;;;18.80;99.90;;;;;;5082546;28;21177;-79
2022/08/17 00:28:36;;;;;;;5.03;4.73;;;18.80;99.90;;;;;;5083418;28;20639;-79
2022/08/17 00:31:06;;;;;;;5.97;5.47;;;18.70;99.90;;;;;;5083797;28;20686;-80
2022/08/17 00:33:33;;;;;;;5.07;4.77;;;18.70;99.90;;;;;;5083036;28;20631;-80
2022/08/17 00:36:01;;;;;;;10.47;5.83;;;18.70;99.90;;;;;;5085026;28;20623;-80
2022/08/17 00:38:29;;;;;;;5.40;4.90;;;18.70;99.90;;;;;;5084926;28;20660;-80
2022/08/17 00:40:58;;;;;;;5.20;4.90;;;18.70;99.90;;;;;;5085575;28;20647;-81
2022/08/17 00:43:30;;;;;;;6.33;5.77;;;18.60;99.90;;;;;;5084223;28;20629;-81
2022/08/17 00:45:58;;;;;;;5.60;5.17;;;18.50;99.90;;;;;;5081657;28;20659;-80
2022/08/17 00:48:26;;;;;;;5.73;5.27;;;18.50;99.90;;;;;;5082291;28;20607;-81
2022/08/17 00:50:58;;;;;;;5.30;4.90;;;18.50;99.90;;;;;;5084693;28;21213;-81
2022/08/17 00:53:27;;;;;;;6.00;5.50;;;18.50;99.90;;;;;;5081540;28;20604;-81
2022/08/17 00:55:54;;;;;;;5.80;5.40;;;18.40;99.90;;;;;;5085526;28;20639;-81
2022/08/17 00:58:22;;;;;;;5.37;4.97;;;18.40;99.90;;;;;;5088296;28;20640;-81
2022/08/17 01:00:50;;;;;;;7.10;6.40;;;18.40;99.90;;;;;;5086794;28;21205;-81
2022/08/17 01:03:21;;;;;;;5.57;5.17;;;18.40;99.90;;;;;;5087875;28;20660;-80
2022/08/17 01:05:52;;;;;;;5.83;4.70;;;18.40;99.90;;;;;;5082737;28;20687;-81
2022/08/17 01:08:23;;;;;;;6.63;5.60;;;18.40;99.90;;;;;;5088083;28;20619;-80
2022/08/17 01:10:52;;;;;;;5.10;4.80;;;18.30;99.90;;;;;;5089585;28;21170;-80
2022/08/17 01:13:19;;;;;;;6.30;5.70;;;18.40;99.90;;;;;;5086339;28;20624;-80
2022/08/17 01:15:51;;;;;;;5.47;5.07;;;18.30;99.90;;;;;;5088022;28;20623;-80
2022/08/17 01:18:18;;;;;;;6.03;5.63;;;18.30;99.90;;;;;;5085050;28;20666;-80
2022/08/17 01:20:51;;;;;;;6.20;5.70;;;18.20;99.90;;;;;;5088779;28;21180;-80
2022/08/17 01:23:22;;;;;;;5.93;5.43;;;18.20;99.90;;;;;;5086757;28;20612;-80
2022/08/17 01:25:50;;;;;;;5.90;5.50;;;18.20;99.90;;;;;;5086755;28;20660;-80
2022/08/17 01:28:17;;;;;;;5.90;5.60;;;18.20;99.90;;;;;;5086362;28;20628;-80
2022/08/17 01:30:45;;;;;;;6.60;6.10;;;18.20;99.90;;;;;;5085930;28;20647;-80
2022/08/17 01:33:12;;;;;;;7.07;6.30;;;18.10;99.90;;;;;;5082729;28;20628;-80
2022/08/17 01:35:39;;;;;;;7.47;6.97;;;18.10;99.90;;;;;;5085206;28;20628;-80
2022/08/17 01:38:08;;;;;;;7.10;6.47;;;18.00;99.90;;;;;;5088634;28;20631;-80
2022/08/17 01:40:38;;;;;;;6.70;6.30;;;18.00;99.90;;;;;;5087943;28;20738;-80
2022/08/17 01:43:10;;;;;;;7.30;6.70;;;18.00;99.90;;;;;;5088623;28;20628;-80
2022/08/17 01:45:42;;;;;;;7.33;6.73;;;18.00;99.90;;;;;;5084920;28;20671;-80
2022/08/17 01:48:10;;;;;;;7.03;6.43;;;18.00;99.90;;;;;;5087020;28;21481;-80
2022/08/17 01:50:37;;;;;;;7.77;7.20;;;18.00;99.90;;;;;;5087238;28;20695;-80
2022/08/17 01:53:06;;;;;;;7.37;6.77;;;17.90;99.90;;;;;;5087834;28;20627;-79
2022/08/17 01:55:39;;;;;;;7.43;6.90;;;17.90;99.90;;;;;;5087511;28;20625;-80
2022/08/17 01:58:08;;;;;;;8.40;7.80;;;17.90;99.90;;;;;;5085358;28;20612;-80
2022/08/17 02:00:35;;;;;;;7.13;6.50;;;17.90;99.90;;;;;;5087607;28;20644;-80
2022/08/17 02:03:02;;;;;;;7.60;6.90;;;17.80;99.90;;;;;;5087155;28;20620;-80
2022/08/17 02:05:29;;;;;;;7.60;6.90;;;17.90;99.90;;;;;;5084865;28;20668;-80
2022/08/17 02:07:56;;;;;;;7.17;6.60;;;17.80;99.90;;;;;;5088234;28;20640;-80
2022/08/17 02:10:23;;;;;;;8.30;6.60;;;17.80;99.90;;;;;;5084666;28;20632;-81
2022/08/17 02:12:51;;;;;;;7.43;6.83;;;17.80;99.90;;;;;;5087930;28;20627;-80
2022/08/17 02:15:19;;;;;;;7.40;6.80;;;17.70;99.90;;;;;;5086407;28;20738;-80
2022/08/17 02:17:47;;;;;;;7.17;6.70;;;17.70;99.90;;;;;;5084551;28;20628;-80
2022/08/17 02:20:14;;;;;;;10.93;5.80;;;17.80;99.90;;;;;;5086696;28;20618;-80
2022/08/17 02:22:43;;;;;;;6.50;6.10;;;17.80;99.90;;;;;;5088303;28;20628;-80
2022/08/17 02:25:13;;;;;;;6.07;5.60;;;17.80;99.90;;;;;;5082671;28;20634;-80
2022/08/17 02:27:40;;;;;;;6.70;6.20;;;17.80;99.90;;;;;;5083529;28;20650;-80
2022/08/17 02:30:11;;;;;;;6.10;5.50;;;17.70;99.90;;;;;;5088359;28;20636;-80
2022/08/17 02:32:39;;;;;;;6.37;5.90;;;17.80;99.90;;;;;;5087400;28;20622;-80
2022/08/17 02:35:07;;;;;;;6.57;6.07;;;17.80;99.90;;;;;;5086099;28;21261;-80
2022/08/17 02:37:34;;;;;;;6.20;5.70;;;17.80;99.90;;;;;;5087643;28;20650;-80
2022/08/17 02:40:01;;;;;;;8.67;6.00;;;17.80;99.90;;;;;;5085851;28;20635;-80
2022/08/17 02:42:32;;;;;;;6.10;5.70;;;17.70;99.90;;;;;;5088015;28;20684;-80
2022/08/17 02:44:59;;;;;;;6.50;6.00;;;17.80;99.90;;;;;;5086520;28;20616;-80
2022/08/17 02:47:28;;;;;;;7.90;6.00;;;17.80;99.90;;;;;;5085301;28;20711;-80
2022/08/17 02:49:55;;;;;;;5.93;5.53;;;17.80;99.90;;;;;;5083764;28;20624;-80
2022/08/17 02:52:22;;;;;;;8.10;6.47;;;17.80;99.90;;;;;;5085536;28;20659;-81
2022/08/17 02:54:49;;;;;;;7.00;6.37;;;17.70;99.90;;;;;;5086666;28;20631;-80
2022/08/17 02:57:15;;;;;;;6.10;5.70;;;17.70;99.90;;;;;;5084182;28;21262;-80
2022/08/17 02:59:45;;;;;;;6.13;5.73;;;17.70;99.90;;;;;;5086034;28;21001;-80
2022/08/17 03:02:12;;;;;;;6.50;6.00;;;17.70;99.90;;;;;;5087004;28;20651;-81
2022/08/17 03:04:40;;;;;;;7.10;6.17;;;17.70;99.90;;;;;;5079788;28;20974;-81
2022/08/17 03:07:07;;;;;;;5.80;5.40;;;17.60;99.90;;;;;;5084245;28;20675;-80
2022/08/17 03:09:34;;;;;;;5.67;5.33;;;17.60;99.90;;;;;;5086491;28;20632;-80
2022/08/17 03:12:05;;;;;;;5.80;5.40;;;17.60;99.90;;;;;;5086537;28;21369;-80
2022/08/17 03:14:32;;;;;;;5.90;5.40;;;17.60;99.90;;;;;;5085628;28;20604;-80
2022/08/17 03:16:58;;;;;;;6.13;5.60;;;17.70;99.90;;;;;;5084555;28;20623;-80
2022/08/17 03:19:25;;;;;;;5.80;5.40;;;17.60;99.90;;;;;;5084338;28;20686;-81
2022/08/17 03:21:54;;;;;;;6.10;5.60;;;17.60;99.90;;;;;;5086078;28;20644;-80
2022/08/17 03:24:20;;;;;;;5.53;5.13;;;17.70;99.90;;;;;;5085427;28;21202;-81
2022/08/17 03:26:47;;;;;;;6.00;5.60;;;17.60;99.90;;;;;;5085308;28;20659;-80
2022/08/17 03:29:17;;;;;;;5.83;5.43;;;17.60;99.90;;;;;;5086704;28;20970;-81
2022/08/17 03:31:45;;;;;;;5.77;5.07;;;17.60;99.90;;;;;;5085386;28;21758;-80
2022/08/17 03:34:12;;;;;;;5.90;5.50;;;17.60;99.90;;;;;;5082759;28;20640;-80
2022/08/17 03:36:39;;;;;;;5.97;5.57;;;17.60;99.90;;;;;;5082853;28;20651;-80
2022/08/17 03:39:07;;;;;;;6.10;5.60;;;17.60;99.90;;;;;;5084793;28;20632;-81
2022/08/17 03:41:34;;;;;;;5.60;5.30;;;17.60;99.90;;;;;;5087026;28;20656;-81
2022/08/17 03:44:00;;;;;;;5.63;5.23;;;17.50;99.90;;;;;;5086032;28;20621;-80
2022/08/17 03:57:30;;;;;;;6.13;5.63;;;17.40;99.90;;;;;;5083488;28;20596;-80
2022/08/17 03:59:57;;;;;;;5.40;5.10;;;17.40;99.90;;;;;;5084177;28;20991;-80
2022/08/17 04:02:27;;;;;;;6.90;6.50;;;17.40;99.90;;;;;;5084088;28;20659;-80
2022/08/17 04:04:54;;;;;;;6.50;6.00;;;17.30;99.90;;;;;;5083022;28;20628;-80
2022/08/17 04:07:23;;;;;;;6.20;5.67;;;17.30;99.90;;;;;;5085090;28;20671;-80
2022/08/17 04:09:52;;;;;;;6.83;6.20;;;17.30;99.90;;;;;;5086324;28;20631;-80
2022/08/17 04:12:21;;;;;;;7.37;6.53;;;17.30;99.90;;;;;;5083524;28;21037;-80
2022/08/17 04:14:48;;;;;;;7.20;5.57;;;17.30;99.90;;;;;;5085658;28;20632;-80
2022/08/17 04:17:14;;;;;;;6.50;6.00;;;17.20;99.90;;;;;;5082377;28;21002;-80
2022/08/17 04:19:41;;;;;;;6.60;6.10;;;17.10;99.90;;;;;;5085820;28;20745;-80
2022/08/17 04:22:08;;;;;;;6.80;6.40;;;17.10;99.90;;;;;;5085441;28;20652;-79
2022/08/17 04:24:35;;;;;;;6.93;6.43;;;17.10;99.90;;;;;;5084973;28;20706;-79
2022/08/17 04:27:03;;;;;;;6.67;6.17;;;17.10;99.90;;;;;;5083839;28;20659;-82
2022/08/17 04:29:30;;;;;;;6.47;6.00;;;17.10;99.90;;;;;;5084737;28;20628;-80
2022/08/17 04:31:57;;;;;;;6.63;6.13;;;17.00;99.90;;;;;;5080969;28;21241;-81
2022/08/17 04:34:24;;;;;;;7.70;7.10;;;17.00;99.90;;;;;;5082106;28;20772;-80
2022/08/17 04:36:51;;;;;;;6.60;6.10;;;17.00;99.90;;;;;;5085234;28;20982;-81
2022/08/17 04:39:18;;;;;;;5.97;5.60;;;17.00;99.90;;;;;;5081870;28;20701;-80
2022/08/17 04:44:30;;;;;;;8.07;7.37;;;17.00;99.90;;;;;;5084068;28;20702;-81
2022/08/17 04:46:57;;;;;;;6.70;6.17;;;17.00;99.90;;;;;;5083395;28;20663;-80
2022/08/17 04:49:24;;;;;;;7.60;6.00;;;17.00;99.90;;;;;;5078223;28;21114;-81
2022/08/17 04:51:51;;;;;;;7.57;6.70;;;17.00;99.90;;;;;;5082537;28;20659;-81
2022/08/17 04:54:20;;;;;;;6.90;6.40;;;17.00;99.90;;;;;;5077785;28;20999;-80
2022/08/17 04:56:47;;;;;;;6.67;6.27;;;17.00;99.90;;;;;;5084004;28;21390;-80
2022/08/17 04:59:17;;;;;;;6.50;6.10;;;17.00;99.90;;;;;;5082558;28;20639;-81
2022/08/17 05:01:47;;;;;;;6.83;6.33;;;17.10;99.90;;;;;;5080839;28;20659;-81
2022/08/17 05:04:16;;;;;;;9.57;6.93;;;17.10;99.90;;;;;;5082595;28;20624;-79
2022/08/17 05:06:44;;;;;;;7.83;7.23;;;17.10;99.90;;;;;;5085550;28;20660;-81
2022/08/17 05:09:11;;;;;;;7.23;6.73;;;17.10;99.90;;;;;;5078759;28;20632;-80
2022/08/17 05:11:38;;;;;;;8.90;8.20;;;17.10;99.90;;;;;;5084124;28;20715;-81
2022/08/17 05:14:08;;;;;;;8.63;7.83;;;17.30;99.90;;;;;;5083699;28;21175;-81
2022/08/17 05:16:35;;;;;;;8.97;8.40;;;17.30;99.90;;;;;;5084778;28;20615;-81
2022/08/17 05:19:03;;;;;;;9.67;8.97;;;17.40;99.90;;;;;;5083044;28;20631;-81
2022/08/17 05:21:30;;;;;;;9.23;8.50;;;17.30;99.90;;;;;;5083926;28;21459;-81
2022/08/17 05:23:57;;;;;;;9.67;8.73;;;17.30;99.90;;;;;;5084799;28;20639;-80
2022/08/17 05:26:26;;;;;;;10.23;9.23;;;17.30;99.90;;;;;;5081446;28;20725;-82
2022/08/17 05:28:53;;;;;;;10.67;9.20;;;17.30;99.90;;;;;;5085737;28;20727;-81
2022/08/17 05:31:20;;;;;;;11.47;10.20;;;17.30;99.90;;;;;;5080286;28;20648;-81
2022/08/17 05:33:48;;;;;;;10.40;9.50;;;17.40;99.90;;;;;;5082779;28;20624;-81
2022/08/17 05:36:16;;;;;;;8.73;8.13;;;17.40;99.90;;;;;;5083182;28;20650;-81
2022/08/17 05:38:43;;;;;;;9.03;8.43;;;17.40;99.90;;;;;;5084259;28;20621;-81
2022/08/17 05:41:10;;;;;;;9.90;9.10;;;17.50;99.90;;;;;;5084635;28;20650;-80
2022/08/17 05:43:39;;;;;;;10.30;9.60;;;17.60;99.90;;;;;;5082732;28;20636;-80
2022/08/17 05:46:13;;;;;;;9.97;9.10;;;17.70;99.90;;;;;;5086495;28;20619;-81
2022/08/17 05:48:42;;;;;;;10.33;9.43;;;17.80;99.90;;;;;;5082736;28;20690;-82
2022/08/17 05:51:27;;;;;;;10.17;9.37;;;17.90;99.90;;;;;;5085174;28;20655;-80
2022/08/17 05:54:06;;;;;;;10.57;9.80;;;18.00;99.90;;;;;;5084346;28;20638;-82
2022/08/17 05:56:51;;;;;;;13.93;9.10;;;18.10;99.90;;;;;;5087115;28;21112;-81
2022/08/17 05:59:26;;;;;;;8.70;8.00;;;18.30;99.90;;;;;;5084375;28;20619;-81
2022/08/17 06:02:01;;;;;;;9.80;8.90;;;18.40;99.90;;;;;;5087269;28;20654;-79
2022/08/17 06:04:40;;;;;;;8.30;7.70;;;18.50;99.90;;;;;;5083827;28;20640;-81
2022/08/17 06:07:16;;;;;;;10.00;9.03;;;18.60;99.90;;;;;;5085120;28;20754;-81
2022/08/17 06:09:50;;;;;;;8.97;8.37;;;18.80;99.90;;;;;;5081226;28;21177;-80
2022/08/17 06:12:33;;;;;;;8.50;7.87;;;18.90;99.90;;;;;;5083730;28;20650;-82
2022/08/17 06:15:15;;;;;;;9.60;8.80;;;19.00;99.90;;;;;;5086825;28;20664;-81
2022/08/17 06:17:43;;;;;;;8.90;8.20;;;19.20;99.90;;;;;;5083250;28;20634;-80
2022/08/17 06:20:12;;;;;;;9.73;8.73;;;19.30;99.90;;;;;;5085783;28;21059;-81
2022/08/17 06:22:44;;;;;;;9.73;8.77;;;19.40;99.90;;;;;;5087621;28;20755;-80
2022/08/17 06:25:15;;;;;;;9.50;8.60;;;19.40;99.90;;;;;;5081712;28;20633;-80
2022/08/17 06:27:48;;;;;;;7.73;7.10;;;19.50;99.90;;;;;;5083503;28;21034;-80
2022/08/17 06:30:19;;;;;;;8.50;7.73;;;19.60;99.90;;;;;;5085224;28;20976;-80
2022/08/17 06:32:50;;;;;;;8.57;7.87;;;19.80;99.90;;;;;;5088521;28;20620;-79
2022/08/17 06:35:24;;;;;;;9.13;8.23;;;19.90;99.90;;;;;;5097129;28;20665;-79
2022/08/17 06:38:03;;;;;;;7.70;7.10;;;20.00;99.90;;;;;;5087431;28;20708;-80
2022/08/17 06:40:48;;;;;;;7.60;6.97;;;20.20;99.90;;;;;;5087241;28;21055;-80
2022/08/17 06:43:38;;;;;;;7.90;6.70;;;20.30;99.90;;;;;;5085151;28;20651;-79
2022/08/17 06:46:09;;;;;;;8.27;7.53;;;20.40;99.90;;;;;;5085214;28;21242;-79
2022/08/17 06:48:43;;;;;;;7.33;6.63;;;20.50;99.90;;;;;;5085772;28;20663;-81
2022/08/17 06:51:20;;;;;;;7.10;6.50;;;20.60;99.90;;;;;;5082887;28;20613;-79
2022/08/17 06:53:55;;;;;;;7.97;7.37;;;20.70;99.90;;;;;;5084191;28;20618;-79
2022/08/17 06:56:31;;;;;;;9.10;7.37;;;20.80;99.90;;;;;;5084069;28;20655;-80
2022/08/17 06:58:59;;;;;;;6.90;6.30;;;21.00;99.90;;;;;;5079766;28;20653;-77
2022/08/17 07:01:35;;;;;;;6.20;5.70;;;21.10;99.90;;;;;;5083800;28;21014;-80
2022/08/17 07:04:08;;;;;;;7.10;6.50;;;21.30;99.90;;;;;;5086880;28;20608;-80
2022/08/17 07:06:40;;;;;;;8.80;6.40;;;21.40;99.90;;;;;;5086014;28;20655;-80
2022/08/17 07:09:16;;;;;;;6.73;6.13;;;21.60;99.90;;;;;;5085930;28;20971;-80
2022/08/17 07:11:50;;;;;;;6.90;6.30;;;21.70;99.90;;;;;;5082968;28;20635;-79
2022/08/17 07:14:30;;;;;;;9.73;7.23;;;21.80;99.90;;;;;;5074257;28;20652;-79
2022/08/17 07:17:01;;;;;;;6.33;5.80;;;21.90;99.90;;;;;;5073520;28;21285;-79
2022/08/17 07:19:32;;;;;;;9.13;5.60;;;22.00;99.90;;;;;;5083964;28;20609;-79
2022/08/17 07:22:11;;;;;;;6.60;6.10;;;22.00;99.90;;;;;;5086111;28;20626;-79
2022/08/17 07:24:48;;;;;;;7.27;6.57;;;22.10;99.90;;;;;;5086208;28;20612;-80
2022/08/17 07:27:19;;;;;;;6.00;5.33;;;22.20;99.90;;;;;;5083200;28;21245;-80
2022/08/17 07:29:50;;;;;;;7.07;5.90;;;22.30;99.90;;;;;;5087184;28;20715;-79
2022/08/17 07:32:21;;;;;;;6.13;5.63;;;22.50;99.90;;;;;;5083521;28;20620;-80
2022/08/17 07:35:13;;;;;;;5.63;5.17;;;22.60;99.90;;;;;;5085988;28;20631;-79
2022/08/17 07:37:42;;;;;;;6.70;6.10;;;22.70;99.90;;;;;;5082431;28;20644;-80
2022/08/17 07:40:29;;;;;;;6.10;5.60;;;22.90;99.90;;;;;;5083788;28;21098;-80
2022/08/17 07:43:16;;;;;;;6.93;6.30;;;23.00;99.90;;;;;;5083796;28;21258;-80
2022/08/17 07:48:45;;;;;;;7.73;7.03;;;23.30;99.90;;;;;;5085097;28;20659;-78
2022/08/17 07:51:19;;;;;;;6.53;5.13;;;23.50;99.90;;;;;;5074854;28;20811;-79
2022/08/17 07:53:47;;;;;;;6.23;5.63;;;23.60;99.90;;;;;;5083422;28;20716;-79
2022/08/17 07:56:33;;;;;;;6.90;5.93;;;23.80;99.90;;;;;;5082569;28;21044;-79
2022/08/17 07:59:07;;;;;;;6.00;5.57;;;23.90;99.90;;;;;;5083669;28;20634;-79
2022/08/17 08:01:36;;;;;;;6.40;6.00;;;24.00;99.90;;;;;;5081056;28;20615;-79
2022/08/17 08:04:17;;;;;;;6.63;5.90;;;24.10;99.90;;;;;;5083634;28;20647;-79
2022/08/17 08:06:51;;;;;;;8.00;6.30;;;24.30;99.90;;;;;;5080510;28;21047;-79
2022/08/17 08:09:31;;;;;;;6.90;5.77;;;24.40;99.90;;;;;;5083081;28;20620;-79
2022/08/17 08:12:01;;;;;;;6.87;6.07;;;24.30;99.90;;;;;;5081378;28;20624;-79
2022/08/17 08:14:32;;;;;;;6.77;6.17;;;24.30;99.90;;;;;;5083794;28;21064;-79
2022/08/17 08:17:02;;;;;;;6.83;6.30;;;24.30;99.90;;;;;;5084868;28;20693;-79
2022/08/17 08:19:30;;;;;;;6.83;6.23;;;24.30;99.90;;;;;;5082950;28;21243;-79
2022/08/17 08:22:04;;;;;;;9.40;6.50;;;24.30;99.90;;;;;;5084639;28;20997;-79
2022/08/17 08:24:51;;;;;;;6.50;6.00;;;24.50;99.90;;;;;;5085226;28;20609;-79
2022/08/17 08:27:28;;;;;;;6.83;6.33;;;24.50;99.90;;;;;;5083436;28;21046;-79
2022/08/17 08:30:03;;;;;;;7.13;6.43;;;24.40;99.90;;;;;;5084836;28;20626;-79
2022/08/17 08:32:52;;;;;;;6.50;5.40;;;24.50;99.90;;;;;;5080859;28;20624;-79
2022/08/17 08:35:29;;;;;;;9.80;5.93;;;24.60;99.90;;;;;;5081852;28;20732;-79
2022/08/17 08:38:04;;;;;;;6.63;5.80;;;24.70;99.90;;;;;;5084892;28;20707;-79
2022/08/17 08:40:47;;;;;;;9.10;6.10;;;24.80;99.90;;;;;;5084983;28;20723;-79
2022/08/17 08:43:26;;;;;;;6.30;5.70;;;24.90;99.90;;;;;;5081384;28;20627;-79
2022/08/17 08:46:03;;;;;;;6.47;5.97;;;25.00;99.90;;;;;;5077226;28;20686;-79
2022/08/17 08:48:51;;;;;;;6.70;6.00;;;25.00;99.90;;;;;;5079828;28;21176;-79
2022/08/17 08:51:26;;;;;;;6.87;6.37;;;25.00;99.90;;;;;;5081767;28;20627;-79
2022/08/17 08:54:02;;;;;;;10.20;6.90;;;25.00;99.90;;;;;;5082253;28;20615;-79
2022/08/17 08:56:37;;;;;;;6.70;5.73;;;25.00;99.90;;;;;;5083180;28;20779;-79
2022/08/17 08:59:17;;;;;;;6.50;5.80;;;25.00;99.90;;;;;;5083943;28;20616;-79
2022/08/17 09:01:54;;;;;;;6.40;5.70;;;25.00;99.90;;;;;;5079752;28;20642;-79
2022/08/17 09:04:36;;;;;;;6.13;5.50;;;25.00;99.90;;;;;;5072209;28;20693;-79
2022/08/17 09:07:12;;;;;;;12.47;5.97;;;25.00;99.90;;;;;;5085171;28;21043;-79
2022/08/17 09:09:49;;;;;;;6.60;6.00;;;24.90;99.90;;;;;;5080538;28;20661;-79
2022/08/17 09:12:25;;;;;;;6.50;6.00;;;24.90;99.90;;;;;;5081305;28;20619;-79
2022/08/17 09:14:58;;;;;;;6.47;5.80;;;24.90;99.90;;;;;;5084020;28;20620;-79
2022/08/17 09:17:35;;;;;;;5.27;4.83;;;24.90;99.90;;;;;;5081798;28;20706;-79
2022/08/17 09:20:10;;;;;;;11.50;5.47;;;25.00;99.90;;;;;;5087264;28;20611;-79
2022/08/17 09:22:41;;;;;;;6.43;5.40;;;25.00;99.90;;;;;;5085896;28;20720;-80
2022/08/17 09:25:12;;;;;;;6.97;5.60;;;25.00;99.90;;;;;;5078818;28;20621;-79
2022/08/17 09:27:50;;;;;;;5.90;5.40;;;25.10;99.90;;;;;;5088058;28;20672;-79
2022/08/17 09:30:19;;;;;;;5.50;4.90;;;25.10;99.90;;;;;;5085151;28;20619;-79
2022/08/17 09:32:50;;;;;;;5.63;5.13;;;25.10;99.90;;;;;;5087827;28;20635;-79
2022/08/17 09:35:21;;;;;;;9.50;5.97;;;25.00;99.90;;;;;;5086401;28;20996;-79
2022/08/17 09:37:57;;;;;;;5.77;5.37;;;25.10;99.90;;;;;;5086314;28;20751;-79
2022/08/17 09:40:28;;;;;;;10.53;6.10;;;25.10;99.90;;;;;;5087484;28;20615;-79
2022/08/17 09:43:01;;;;;;;9.57;5.30;;;25.10;99.90;;;;;;5088451;28;21189;-79
2022/08/17 09:45:34;;;;;;;6.00;5.50;;;25.10;99.90;;;;;;5085923;28;20634;-78
2022/08/17 09:48:07;;;;;;;6.47;5.83;;;25.10;99.90;;;;;;5085310;28;21227;-78
2022/08/17 09:50:40;;;;;;;7.03;6.20;;;25.10;99.90;;;;;;5087464;28;20627;-79
2022/08/17 09:53:07;;;;;;;8.10;5.60;;;25.10;99.90;;;;;;5084006;28;20989;-79
2022/08/17 09:55:52;;;;;;;6.20;5.60;;;25.10;99.90;;;;;;5086661;28;20656;-80
2022/08/17 09:58:28;;;;;;;10.20;5.50;;;25.10;99.90;;;;;;5086528;28;20983;-80
2022/08/17 10:01:02;;;;;;;7.40;5.93;;;25.20;99.90;;;;;;5084175;28;20655;-80
2022/08/17 10:03:49;;;;;;;8.87;6.17;;;25.30;99.90;;;;;;5086664;28;20696;-81
2022/08/17 10:06:21;;;;;;;9.70;6.50;;;25.40;99.90;;;;;;5081072;28;20666;-80
2022/08/17 10:08:57;;;;;;;8.33;6.57;;;25.40;99.90;;;;;;5086404;28;21254;-80
2022/08/17 10:12:14;;;;;;;10.73;5.90;;;25.60;99.90;;;;;;5087327;28;20639;-80
2022/08/17 10:14:26;;;;;;;9.63;6.60;;;25.70;98.10;;;;;;5085055;28;21042;-80
2022/08/17 10:17:00;;;;;;;9.73;5.90;;;25.80;97.20;;;;;;5086310;28;20651;-79
2022/08/17 10:19:35;;;;;;;6.40;5.80;;;25.90;96.80;;;;;;5085284;28;20986;-80
2022/08/17 10:27:47;;;;;;;7.60;5.57;;;26.10;94.40;;;;;;5081308;28;20731;-80
2022/08/17 10:30:17;;;;;;;8.13;6.73;;;26.20;94.70;;;;;;5081045;28;20613;-80
2022/08/17 10:32:51;;;;;;;8.80;6.53;;;26.20;95.00;;;;;;5084365;28;20624;-80
2022/08/17 10:35:32;;;;;;;6.03;5.53;;;26.30;94.40;;;;;;5083079;28;21135;-79
2022/08/17 10:38:28;;;;;;;6.50;5.90;;;26.30;94.00;;;;;;5086354;28;20981;-80
2022/08/17 10:41:01;;;;;;;6.83;6.20;;;26.30;94.70;;;;;;5084868;28;20655;-80
2022/08/17 10:43:40;;;;;;;6.83;6.23;;;26.30;94.50;;;;;;5086005;28;20655;-80
2022/08/17 10:46:15;;;;;;;6.83;5.60;;;26.20;95.30;;;;;;5084001;28;21166;-79
2022/08/17 10:48:44;;;;;;;6.00;5.57;;;26.30;94.60;;;;;;5082820;28;20659;-79
2022/08/17 10:51:35;;;;;;;6.50;5.93;;;26.30;93.20;;;;;;5081734;28;20631;-79
2022/08/17 10:54:01;;;;;;;6.30;5.50;;;26.30;93.00;;;;;;5085142;28;20624;-78
2022/08/17 10:56:47;;;;;;;6.13;5.57;;;26.30;94.90;;;;;;5085265;28;20676;-78
2022/08/17 10:59:49;;;;;;;7.13;5.10;;;26.30;91.60;;;;;;5078288;28;20626;-78
2022/08/17 11:02:26;;;;;;;5.50;5.00;;;26.30;92.00;;;;;;5083311;28;20643;-78
2022/08/17 11:05:14;;;;;;;4.77;4.37;;;26.40;86.70;;;;;;5082385;28;20661;-79
2022/08/17 11:07:57;;;;;;;3.70;3.40;;;26.40;83.00;;;;;;5083957;28;20656;-78
2022/08/17 11:10:42;;;;;;;5.40;4.10;;;26.50;82.60;;;;;;5086207;28;20624;-78
2022/08/17 11:13:17;;;;;;;4.70;4.30;;;26.50;81.40;;;;;;5085129;28;21249;-79
2022/08/17 11:15:56;;;;;;;5.10;4.70;;;26.60;81.80;;;;;;5083456;28;21311;-78
2022/08/17 11:18:47;;;;;;;4.80;4.50;;;26.60;81.10;;;;;;5080705;28;20631;-79
2022/08/17 11:21:33;;;;;;;4.33;4.00;;;26.60;82.10;;;;;;5084186;28;20627;-78
2022/08/17 11:24:22;;;;;;;4.87;3.50;;;26.50;78.90;;;;;;5085410;28;20624;-79
2022/08/17 11:27:08;;;;;;;4.43;3.87;;;26.50;80.00;;;;;;5080053;28;21215;-78
2022/08/17 11:29:45;;;;;;;4.27;3.83;;;26.50;81.40;;;;;;5085715;28;20664;-79
2022/08/17 11:32:29;;;;;;;4.50;4.20;;;26.40;82.90;;;;;;5083765;28;20628;-79
2022/08/17 11:35:14;;;;;;;6.33;4.00;;;26.30;83.10;;;;;;5081941;28;20631;-79
2022/08/17 11:37:52;;;;;;;4.40;4.20;;;26.10;85.40;;;;;;5080882;28;20683;-78
2022/08/17 11:40:45;;;;;;;5.30;4.10;;;25.80;88.70;;;;;;5082063;28;20628;-78
2022/08/17 11:43:58;;;;;;;6.40;3.63;;;25.70;91.50;;;;;;5081548;28;20691;-79
2022/08/17 11:52:38;;;;;;;3.80;3.50;;;25.50;93.20;;;;;;5081676;28;20626;-79
2022/08/17 11:55:09;;;;;;;3.70;3.40;;;25.40;93.10;;;;;;5084315;28;20628;-79
2022/08/17 11:58:00;;;;;;;4.77;4.37;;;25.30;94.20;;;;;;5081771;28;21445;-79
2022/08/17 12:00:55;;;;;;;3.80;3.50;;;25.40;95.00;;;;;;5082844;28;20627;-79
2022/08/17 12:03:52;;;;;;;4.80;4.40;;;25.30;95.20;;;;;;5083074;28;20647;-79
2022/08/17 12:06:46;;;;;;;4.67;3.80;;;25.40;94.10;;;;;;5083098;28;20668;-79
2022/08/17 12:09:18;;;;;;;6.70;3.90;;;25.40;94.40;;;;;;5079622;28;21207;-79
2022/08/17 12:11:54;;;;;;;3.80;3.57;;;25.40;94.00;;;;;;5082252;28;21205;-79
2022/08/17 12:14:25;;;;;;;6.27;5.67;;;25.40;93.40;;;;;;5082619;28;20627;-79
2022/08/17 12:17:00;;;;;;;6.67;6.17;;;25.50;92.80;;;;;;5084283;28;20648;-80
2022/08/17 12:19:28;;;;;;;6.43;5.87;;;25.80;92.30;;;;;;5082757;28;20723;-79
2022/08/17 12:21:59;;;;;;;4.57;4.30;;;26.00;90.20;;;;;;5085609;28;20624;-80
2022/08/17 12:24:46;;;;;;;4.10;3.80;;;26.30;86.90;;;;;;5084899;28;20700;-80
2022/08/17 12:27:23;;;;;;;4.10;3.80;;;26.40;83.20;;;;;;5082731;28;20652;-80
2022/08/17 12:29:51;;;;;;;3.47;3.17;;;26.50;83.30;;;;;;5082679;28;20648;-80
2022/08/17 12:32:20;;;;;;;4.33;4.03;;;26.50;82.60;;;;;;5083739;28;20998;-81
2022/08/17 12:34:50;;;;;;;4.10;3.80;;;26.60;82.70;;;;;;5084945;28;20620;-80
2022/08/17 12:37:19;;;;;;;3.83;3.57;;;26.70;83.10;;;;;;5087465;28;20659;-80
2022/08/17 12:39:56;;;;;;;4.23;3.83;;;26.90;80.90;;;;;;5094516;28;20983;-80
2022/08/17 12:42:31;;;;;;;5.07;4.67;;;27.20;77.90;;;;;;5086306;28;21223;-81
2022/08/17 12:44:59;;;;;;;4.60;4.30;;;27.50;75.30;;;;;;5080243;28;20738;-81
2022/08/17 12:47:30;;;;;;;4.60;4.23;;;27.70;73.40;;;;;;5077835;28;21254;-80
2022/08/17 12:50:08;;;;;;;4.30;3.90;;;28.10;72.40;;;;;;5082399;28;20668;-81
2022/08/17 12:52:39;;;;;;;4.13;3.83;;;28.70;68.40;;;;;;5082831;28;20635;-81
2022/08/17 12:55:11;;;;;;;4.07;3.77;;;29.10;65.80;;;;;;5085800;28;20682;-81
2022/08/17 12:57:43;;;;;;;4.03;3.73;;;29.40;63.50;;;;;;5089885;28;20643;-81
2022/08/17 13:00:16;;;;;;;4.10;3.83;;;29.90;62.90;;;;;;5084785;28;20612;-82
2022/08/17 13:02:46;;;;;;;5.43;3.87;;;30.30;61.40;;;;;;5085950;28;20697;-81
2022/08/17 13:05:21;;;;;;;4.00;3.70;;;30.70;58.50;;;;;;5082985;28;20999;-80
2022/08/17 13:07:49;;;;;;;4.20;3.90;;;31.20;56.40;;;;;;5088002;28;20670;-81
2022/08/17 13:10:22;;;;;;;3.57;3.27;;;31.80;53.70;;;;;;5088210;28;20667;-82
2022/08/17 13:12:51;;;;;;;4.33;3.60;;;32.10;52.50;;;;;;5084244;28;21015;-80
2022/08/17 13:15:28;;;;;;;3.93;3.63;;;32.70;53.30;;;;;;5084843;28;20627;-81
2022/08/17 13:18:08;;;;;;;3.70;3.40;;;33.30;52.10;;;;;;5084560;28;20623;-81
2022/08/17 13:20:35;;;;;;;4.00;3.70;;;34.10;48.70;;;;;;5083351;28;20718;-80
2022/08/17 13:23:06;;;;;;;4.67;4.27;;;34.50;48.00;;;;;;5088792;28;20627;-81
2022/08/17 13:25:33;;;;;;;4.10;3.70;;;34.80;46.70;;;;;;5086054;28;20616;-81
2022/08/17 13:28:02;;;;;;;5.07;4.10;;;35.00;47.10;;;;;;5087625;28;20838;-81
2022/08/17 13:30:32;;;;;;;4.17;3.40;;;35.20;46.50;;;;;;5083980;28;20660;-81
2022/08/17 13:33:02;;;;;;;4.10;3.20;;;35.30;45.80;;;;;;5087922;28;20684;-80
2022/08/17 13:35:44;;;;;;;6.57;3.30;;;35.30;44.30;;;;;;5087265;28;20707;-81
2022/08/17 13:38:33;;;;;;;8.30;3.77;;;35.40;45.10;;;;;;5082810;28;20681;-81
2022/08/17 13:41:00;;;;;;;4.13;3.83;;;35.60;44.90;;;;;;5087309;28;20986;-82
2022/08/17 13:43:47;;;;;;;4.33;4.00;;;35.70;44.30;;;;;;5084257;28;20734;-80